Latest Weather Observations for Gudgenby

IDN60801

Issued at 7:52 pm EST Wednesday 12 August 2020 (issued every 10 minutes, with the page automatically refreshed every 10 minutes)

About weather observations | Map of weather stations | Latest weather observations for NSW | Other Formats
Station Details ID: 250072 Name: GUDGENBY (PCS) Lat: -35.73 Lon: 148.98 Height: 1035.0 m

Portable automatic weather stations (PAWS) are operated by other organisations, such as Fire and Emergency Services, and are included here by agreement. Portable stations may be deployed to a location for a short period and their location may be subject to change without notice. Wind observations from these stations are provided from heights of either three (3) or ten (10) metres above ground level (AGL).

Data from the previous 72 hours. | See also: Recent months for locations in New South Wales
Date/Time
EST
Temp
°C
App
Temp
°C
Dew
Point
°C
Rel
Hum
%
Delta-T
°C
Wind Press
QNH
hPa
Press
MSL
hPa
Rain since
9am
mm
Dir  Spd
km/h
Gust
km/h
Spd
kts
Gust
kts
12/07:40pm 6.7 4.5 6.2 97 0.2 NNE 7 11 4 6 - - 0.4
12/07:30pm 6.6 3.6 6.1 97 0.2 N 11 13 6 7 - - 0.2
12/07:20pm 6.8 4.2 6.1 95 0.3 NNE 9 11 5 6 - - 0.2
12/07:10pm 6.9 4.3 6.2 95 0.3 NNE 9 11 5 6 - - 0.0
12/07:00pm 6.8 4.2 6.1 95 0.3 NE 9 13 5 7 - - 0.0
12/06:50pm 6.9 4.3 6.1 95 0.4 NE 9 11 5 6 - - 0.0
12/06:40pm 7.0 4.4 5.9 93 0.5 NNE 9 11 5 6 - - 0.0
12/06:30pm 7.2 4.5 5.6 89 0.8 NNE 9 11 5 6 - - 0.0
12/06:20pm 7.3 5.0 5.5 88 0.9 N 7 11 4 6 - - 0.0
12/06:10pm 7.4 5.2 5.2 86 1.0 N 6 7 3 4 - - 0.0
12/06:00pm 7.5 5.1 5.1 85 1.1 N 7 9 4 5 - - 0.0
12/05:50pm 7.5 4.8 5.4 86 1.0 N 9 11 5 6 - - 0.0
12/05:40pm 7.5 4.3 5.3 86 1.0 N 11 11 6 6 - - 0.0
12/05:30pm 7.5 4.4 5.7 88 0.9 N 11 13 6 7 - - 0.0
12/05:20pm 7.7 4.2 5.5 86 1.0 N 13 15 7 8 - - 0.0
12/05:10pm 8.0 4.9 5.5 84 1.2 N 11 13 6 7 - - 0.0
12/05:00pm 8.3 4.7 5.2 81 1.5 NNW 13 15 7 8 - - 0.0
12/04:50pm 8.4 4.8 5.2 80 1.5 NNW 13 15 7 8 - - 0.0
12/04:40pm 8.5 4.5 4.9 78 1.7 NNW 15 17 8 9 - - 0.0
12/04:30pm 8.7 4.7 5.0 77 1.8 NNW 15 19 8 10 - - 0.0
12/04:20pm 9.0 4.7 5.1 76 1.9 NNW 17 19 9 10 - - 0.0
12/04:10pm 9.2 5.1 4.6 73 2.2 NW 15 17 8 9 - - 0.0
12/04:00pm 9.5 5.8 4.6 71 2.3 NW 13 15 7 8 - - 0.0
12/03:50pm 9.9 5.6 5.1 72 2.3 NW 17 17 9 9 - - 0.0
12/03:40pm 10.2 5.5 5.1 70 2.5 NW 19 22 10 12 - - 0.0
12/03:30pm 10.2 5.8 5.0 70 2.5 NNW 17 20 9 11 - - 0.0
12/03:20pm 9.5 5.5 4.9 73 2.2 NNW 15 17 8 9 - - 0.0
12/03:10pm 8.8 4.6 5.5 80 1.6 N 17 19 9 10 - - 0.0
12/03:00pm 8.5 4.6 5.2 80 1.6 N 15 19 8 10 - - 0.0
12/02:50pm 8.6 5.5 5.6 81 1.4 N 11 15 6 8 - - 0.0
12/02:40pm 8.5 5.2 4.6 76 1.8 NNW 11 13 6 7 - - 0.0
12/02:30pm 8.4 5.6 5.0 79 1.6 NW 9 11 5 6 - - 0.0
12/02:20pm 8.1 4.9 5.3 82 1.3 NW 11 15 6 8 - - 0.0
12/02:10pm 7.7 3.3 5.0 83 1.3 NW 17 19 9 10 - - 0.0
12/02:00pm 8.0 3.2 4.7 80 1.5 NW 19 22 10 12 - - 0.0
12/01:50pm 8.2 3.8 4.7 78 1.6 NW 17 20 9 11 - - 0.0
12/01:40pm 8.3 3.9 4.7 78 1.7 NW 17 20 9 11 - - 0.0
12/01:30pm 8.1 2.7 4.4 77 1.7 NW 22 24 12 13 - - 0.0
12/01:20pm 8.2 2.4 4.4 77 1.8 NW 24 28 13 15 - - 0.0
12/01:10pm 8.5 2.4 4.6 76 1.8 NW 26 28 14 15 - - 0.0
12/01:00pm 9.0 3.9 4.2 72 2.2 NNW 20 22 11 12 - - 0.0
12/12:50pm 9.1 4.6 4.3 72 2.3 N 17 19 9 10 - - 0.0
12/12:40pm 9.6 5.5 4.6 71 2.4 N 15 19 8 10 - - 0.0
12/12:30pm 10.4 6.3 4.2 65 2.9 NNW 15 19 8 10 - - 0.0
12/12:20pm 10.1 4.9 3.3 62 3.1 NW 20 24 11 13 - - 0.0
12/12:10pm 10.0 3.7 3.8 65 2.9 NNW 26 28 14 15 - - 0.0
12/12:00pm 10.2 5.3 4.0 65 2.9 NNW 19 24 10 13 - - 0.0
12/11:50am 10.9 6.6 3.1 58 3.6 NNW 15 17 8 9 - - 0.0
12/11:40am 10.3 6.4 3.5 62 3.2 NW 13 19 7 10 - - 0.0
12/11:30am 9.5 4.2 3.2 65 2.9 NW 20 24 11 13 - - 0.0
12/11:20am 9.3 3.6 3.0 65 2.9 NW 22 26 12 14 - - 0.0
12/11:10am 9.8 3.8 3.3 64 3.0 NW 24 30 13 16 - - 0.0
12/11:00am 10.6 4.3 3.7 62 3.2 NW 26 30 14 16 - - 0.0
12/10:50am 11.0 5.4 3.6 60 3.5 NW 22 24 12 13 - - 0.0
12/10:40am 10.3 4.9 2.7 59 3.5 NNW 20 24 11 13 - - 0.0
12/10:30am 9.9 4.2 3.1 62 3.1 NNW 22 24 12 13 - - 0.0
12/10:20am 9.4 3.8 3.7 67 2.6 NNW 22 28 12 15 - - 0.0
12/10:10am 9.5 4.3 3.8 67 2.7 NNW 20 24 11 13 - - 0.0
12/10:00am 9.3 4.3 3.8 68 2.6 NNW 19 22 10 12 - - 0.0
12/09:50am 8.8 4.3 4.3 73 2.1 NNW 17 22 9 12 - - 0.0
12/09:40am 8.4 5.3 3.8 73 2.1 N 9 13 5 7 - - 0.0
12/09:30am 8.1 5.1 4.1 76 1.9 NE 9 11 5 6 - - 0.0
12/09:20am 8.5 6.1 4.1 74 2.0 ENE 6 11 3 6 - - 0.0
12/09:10am 7.1 4.7 4.1 81 1.4 ENE 6 7 3 4 - - 0.0
12/09:00am 5.5 2.7 3.4 86 0.9 E 7 9 4 5 - - 0.0
12/08:50am 4.8 2.2 3.4 91 0.6 ENE 6 7 3 4 - - 0.0
12/08:40am 4.5 1.3 3.2 91 0.6 NE 9 13 5 7 - - 0.0
12/08:30am 3.8 0.9 2.8 93 0.4 ENE 7 9 4 5 - - 0.0
12/08:20am 3.2 0.4 2.1 92 0.5 SE 6 7 3 4 - - 0.0
12/08:10am 3.3 0.5 2.2 92 0.5 SE 6 6 3 3 - - 0.0
12/08:00am 3.4 1.0 2.2 92 0.5 NE 4 7 2 4 - - 0.0
12/07:50am 3.5 0.2 2.3 92 0.5 NE 9 15 5 8 - - 0.0
12/07:40am 3.3 0.0 2.2 92 0.5 NE 9 11 5 6 - - 0.0
12/07:30am 2.7 0.3 2.1 96 0.3 E 4 7 2 4 - - 0.0
12/07:20am 2.3 -0.2 1.7 96 0.2 SE 4 7 2 4 - - 0.0
12/07:10am 1.6 -1.3 1.2 97 0.2 SE 6 7 3 4 - - 0.0
12/07:00am 1.9 -1.1 0.7 92 0.5 ENE 6 7 3 4 - - 0.0
12/06:50am 2.2 -0.6 2.0 99 0.1 NW 6 7 3 4 - - 0.0
12/06:40am 1.6 -1.4 1.1 96 0.2 WNW 6 9 3 5 - - 0.0
12/06:30am 2.1 -0.9 1.7 97 0.2 ESE 7 9 4 5 - - 0.0
12/06:20am 2.0 -1.0 1.9 99 0.0 SE 7 9 4 5 - - 0.0
12/06:10am 1.5 -1.6 1.5 100 0.0 SSE 7 11 4 6 - - 0.0
12/06:00am 1.6 -1.5 1.6 100 0.0 SSE 7 9 4 5 - - 0.0
12/05:50am 1.9 -0.9 1.9 100 0.0 S 6 9 3 5 - - 0.0
12/05:40am 1.9 -0.5 1.9 100 0.0 S 4 7 2 4 - - 0.0
12/05:30am 0.5 -2.5 0.5 100 0.0 SE 6 7 3 4 - - 0.0
12/05:20am 0.2 -2.9 0.2 100 0.0 NNW 6 11 3 6 - - 0.0
12/05:10am 0.5 -3.5 0.5 100 0.0 NNE 11 15 6 8 - - 0.0
12/05:00am 1.5 -1.4 1.5 100 0.0 NNE 6 7 3 4 - - 0.0
12/04:50am 1.5 -2.0 1.5 100 0.0 E 9 11 5 6 - - 0.0
12/04:40am 1.3 -2.2 1.3 100 0.0 ENE 9 13 5 7 - - 0.0
12/04:30am 0.3 -3.0 0.3 100 0.0 NNE 7 13 4 7 - - 0.0
12/04:20am 1.2 -2.3 1.2 100 0.0 NE 9 13 5 7 - - 0.0
12/04:10am 1.2 -2.3 1.2 100 0.0 E 9 15 5 8 - - 0.0
12/04:00am 1.1 -2.0 1.1 100 0.0 NE 7 13 4 7 - - 0.0
12/03:50am -0.1 -3.2 -0.1 100 0.0 ENE 6 7 3 4 - - 0.0
12/03:40am -0.5 -3.9 -0.5 100 0.0 SSE 7 7 4 4 - - 0.0
12/03:30am 0.2 -3.5 0.2 100 0.0 S 9 11 5 6 - - 0.0
12/03:20am 0.0 -2.7 0.0 100 0.0 SW 4 11 2 6 - - 0.0
12/03:10am -0.2 -2.6 -0.2 100 0.0 SW 2 4 1 2 - - 0.0
12/03:00am 0.1 -3.0 0.0 99 0.0 S 6 7 3 4 - - 0.0
12/02:50am -0.3 -3.7 -0.3 100 0.0 S 7 9 4 5 - - 0.0
12/02:40am 0.4 -2.9 0.4 100 0.0 SSE 7 9 4 5 - - 0.0
12/02:30am 0.8 -2.2 0.7 99 0.0 S 6 7 3 4 - - 0.0
12/02:20am 0.3 -2.4 0.3 100 0.0 S 4 7 2 4 - - 0.0
12/02:10am 0.5 -2.2 0.5 100 0.0 S 4 6 2 3 - - 0.0
12/02:00am 0.5 -2.2 0.5 100 0.0 S 4 6 2 3 - - 0.0
12/01:50am 1.3 -1.2 1.3 100 0.0 S 4 6 2 3 - - 0.0
12/01:40am 1.3 -1.2 1.3 100 0.0 W 4 6 2 3 - - 0.0
12/01:30am 1.5 -1.0 1.5 100 0.0 WNW 4 6 2 3 - - 0.0
12/01:20am 1.8 -1.0 1.8 100 0.0 ESE 6 7 3 4 - - 0.0
12/01:10am 2.0 -0.4 2.0 100 0.0 E 4 4 2 2 - - 0.0
12/01:00am 2.2 0.2 2.2 100 0.0 W 2 4 1 2 - - 0.0
12/12:50am 2.2 0.2 2.2 100 0.0 E 2 4 1 2 - - 0.0
12/12:40am 2.3 0.3 2.3 100 0.0 SE 2 2 1 1 - - 0.0
12/12:30am 2.3 0.3 2.3 100 0.0 SW 2 6 1 3 - - 0.0
12/12:20am 2.3 -0.5 2.3 100 0.0 W 6 6 3 3 - - 0.0
12/12:10am 2.2 -0.2 2.2 100 0.0 S 4 4 2 2 - - 0.0
12/12:00am 2.2 -0.8 2.2 100 0.0 ESE 7 9 4 5 - - 0.0
 
Date/Time
EST
Temp
°C
App
Temp
°C
Dew
Point
°C
Rel
Hum
%
Delta-T
°C
Wind Press
QNH
hPa
Press
MSL
hPa
Rain since
9am
mm
Dir  Spd
km/h
Gust
km/h
Spd
kts
Gust
kts
11/11:50pm 2.3 -0.1 2.3 100 0.0 ESE 4 7 2 4 - - 0.0
11/11:40pm 2.5 0.2 2.5 100 0.0 S 4 6 2 3 - - 0.0
11/11:30pm 2.5 0.2 2.5 100 0.0 W 4 6 2 3 - - 0.0
11/11:20pm 2.4 0.4 2.4 100 0.0 SW 2 4 1 2 - - 0.0
11/11:10pm 2.4 0.4 2.4 100 0.0 NNE 2 4 1 2 - - 0.0
11/11:00pm 2.2 0.2 2.2 100 0.0 N 2 4 1 2 - - 0.0
11/10:50pm 2.0 -0.4 2.0 100 0.0 NNW 4 4 2 2 - - 0.0
11/10:40pm 1.7 -1.2 1.6 99 0.0 NNW 6 6 3 3 - - 0.0
11/10:30pm 2.3 -0.5 2.3 100 0.0 WNW 6 6 3 3 - - 0.0
11/10:20pm 2.3 0.3 2.3 100 0.0 SSW 2 4 1 2 - - 0.0
11/10:10pm 2.2 -0.6 2.2 100 0.0 E 6 9 3 5 - - 0.0
11/10:00pm 2.3 0.3 2.2 99 0.0 SW 2 4 1 2 - - 0.0
11/09:50pm 2.1 -0.3 2.1 100 0.0 S 4 4 2 2 - - 0.0
11/09:40pm 1.9 -0.6 1.8 99 0.0 SSE 4 4 2 2 - - 0.0
11/09:30pm 1.9 -0.6 1.8 99 0.0 SSE 4 6 2 3 - - 0.0
11/09:20pm 2.3 0.3 2.1 99 0.1 SSE 2 2 1 1 - - 0.0
11/09:10pm 2.4 0.4 2.3 99 0.0 SW 2 4 1 2 - - 0.0
11/09:00pm 2.5 0.1 2.4 99 0.0 NNW 4 4 2 2 - - 0.0
11/08:50pm 2.4 0.4 2.2 99 0.1 W 2 4 1 2 - - 0.0
11/08:40pm 2.3 0.2 1.9 97 0.2 NNW 2 4 1 2 - - 0.0
11/08:30pm 2.3 -0.1 1.9 97 0.2 NNW 4 6 2 3 - - 0.0
11/08:20pm 2.5 0.4 2.0 96 0.2 NW 2 4 1 2 - - 0.0
11/08:10pm 2.8 0.4 2.4 97 0.2 SSW 4 4 2 2 - - 0.0
11/08:00pm 2.6 -0.2 2.1 96 0.2 S 6 7 3 4 - - 0.0
11/07:50pm 3.0 0.3 2.4 96 0.3 SSE 6 6 3 3 - - 0.0
11/07:40pm 3.2 0.9 2.6 96 0.3 S 4 4 2 2 - - 0.0
11/07:30pm 3.2 0.5 2.5 95 0.3 SSW 6 6 3 3 - - 0.0
11/07:20pm 3.3 1.0 2.6 95 0.3 SE 4 4 2 2 - - 0.0
11/07:10pm 3.5 1.2 2.7 94 0.3 SE 4 4 2 2 - - 0.0
11/07:00pm 3.7 1.8 2.8 94 0.4 E 2 4 1 2 - - 0.0
11/06:50pm 3.8 1.5 2.8 93 0.4 E 4 6 2 3 - - 0.0
11/06:40pm 3.9 1.6 2.7 92 0.5 E 4 6 2 3 - - 0.0
11/06:30pm 4.2 1.9 2.9 91 0.6 SSE 4 6 2 3 - - 0.0
11/06:20pm 4.3 1.1 2.8 90 0.7 NE 9 15 5 8 - - 0.0
11/06:10pm 4.6 -0.1 3.0 89 0.7 NE 17 19 9 10 - - 0.0
11/06:00pm 4.9 0.6 3.0 87 0.8 NE 15 19 8 10 - - 0.0
11/05:50pm 5.0 -0.1 3.1 87 0.8 ENE 19 19 10 10 - - 0.0
11/05:40pm 5.4 1.1 3.2 86 1.0 ENE 15 17 8 9 - - 0.0
11/05:30pm 5.7 2.9 3.3 84 1.1 ENE 7 15 4 8 - - 0.0
11/05:20pm 6.0 3.3 3.5 84 1.1 E 7 13 4 7 - - 0.0
11/05:10pm 6.3 2.4 3.5 82 1.3 NE 13 15 7 8 - - 0.0
11/05:00pm 6.7 2.9 3.7 81 1.4 ENE 13 15 7 8 - - 0.0
11/04:50pm 7.3 4.3 3.9 79 1.6 ENE 9 11 5 6 - - 0.0
11/04:40pm 8.0 5.3 3.9 75 1.9 ENE 7 11 4 6 - - 0.0
11/04:30pm 8.1 4.3 4.0 75 1.9 NE 13 15 7 8 - - 0.0
11/04:20pm 8.6 4.9 4.4 75 2.0 NE 13 15 7 8 - - 0.0
11/04:10pm 9.0 5.7 4.4 73 2.2 NE 11 11 6 6 - - 0.0
11/04:00pm 9.1 6.2 4.5 73 2.2 NE 9 13 5 7 - - 0.0
11/03:50pm 9.0 6.0 4.2 72 2.2 ENE 9 13 5 7 - - 0.0
11/03:40pm 9.1 5.7 4.1 71 2.3 ENE 11 13 6 7 - - 0.0
11/03:30pm 9.1 5.4 4.3 72 2.3 ENE 13 15 7 8 - - 0.0
11/03:20pm 9.5 5.8 4.6 71 2.3 ENE 13 20 7 11 - - 0.0
11/03:10pm 9.6 6.0 4.8 72 2.3 ENE 13 17 7 9 - - 0.0
11/03:00pm 9.3 5.3 4.7 73 2.2 E 15 19 8 10 - - 0.0
11/02:50pm 9.3 5.3 4.7 73 2.2 ENE 15 17 8 9 - - 0.0
11/02:40pm 8.8 4.2 3.9 71 2.3 ENE 17 20 9 11 - - 0.0
11/02:30pm 9.0 4.5 4.2 72 2.2 ENE 17 19 9 10 - - 0.0
11/02:20pm 9.2 5.1 4.3 71 2.3 ENE 15 19 8 10 - - 0.0
11/02:10pm 9.1 5.0 4.5 73 2.2 ENE 15 19 8 10 - - 0.0
11/02:00pm 8.7 4.5 4.0 72 2.2 ENE 15 17 8 9 - - 0.0
11/01:50pm 8.7 4.2 4.2 73 2.1 ENE 17 20 9 11 - - 0.0
11/01:40pm 9.2 5.0 3.7 68 2.5 ENE 15 17 8 9 - - 0.0
11/01:30pm 9.0 4.4 3.5 68 2.5 ENE 17 19 9 10 - - 0.0
11/01:20pm 9.1 5.4 4.3 72 2.3 ENE 13 17 7 9 - - 0.0
11/01:10pm 9.0 4.6 4.6 74 2.1 ENE 17 17 9 9 - - 0.0
11/01:00pm 9.1 4.8 3.5 68 2.6 ENE 15 19 8 10 - - 0.0
11/12:50pm 8.6 4.0 3.7 71 2.3 ENE 17 19 9 10 - - 0.0
11/12:40pm 8.5 4.2 3.3 70 2.4 NE 15 17 8 9 - - 0.0
11/12:30pm 8.6 5.0 3.0 68 2.5 NE 11 17 6 9 - - 0.0
11/12:20pm 7.9 4.4 3.4 73 2.0 NE 11 15 6 8 - - 0.0
11/12:10pm 7.7 3.7 2.6 70 2.3 NE 13 15 7 8 - - 0.0
11/12:00pm 8.3 4.3 3.1 70 2.4 NE 13 15 7 8 - - 0.0
11/11:50am 7.9 3.9 2.8 70 2.3 ENE 13 17 7 9 - - 0.0
11/11:40am 8.3 5.1 3.1 70 2.4 NE 9 13 5 7 - - 0.0
11/11:30am 8.0 5.3 2.6 69 2.4 N 6 11 3 6 - - 0.0
11/11:20am 8.2 5.8 2.4 67 2.6 NNE 4 6 2 3 - - 0.0
11/11:10am 8.0 5.5 1.6 64 2.8 NW 4 6 2 3 - - 0.0
11/11:00am 7.5 5.1 2.2 69 2.3 ENE 4 6 2 3 - - 0.0
11/10:50am 7.1 4.7 2.2 71 2.2 ENE 4 4 2 2 - - 0.0
11/10:40am 6.3 4.3 2.4 76 1.7 S 2 4 1 2 - - 0.0
11/10:30am 5.7 3.6 1.4 74 1.8 SSE 2 2 1 1 - - 0.0
11/10:20am 5.1 2.9 1.2 76 1.6 S 2 4 1 2 - - 0.0
11/10:10am 4.3 2.0 0.6 77 1.5 S 2 4 1 2 - - 0.0
11/10:00am 3.6 1.3 0.4 79 1.3 SE 2 4 1 2 - - 0.0
11/09:50am 3.1 0.4 0.1 81 1.2 SSE 4 4 2 2 - - 0.0
11/09:40am 2.9 0.1 -0.1 81 1.2 S 4 4 2 2 - - 0.0
11/09:30am 2.3 0.0 0.1 85 0.9 E 2 4 1 2 - - 0.0
11/09:20am 1.4 -1.4 -0.6 86 0.8 NNE 4 6 2 3 - - 0.0
11/09:10am 1.9 -0.9 -0.5 84 0.9 NNW 4 4 2 2 - - 0.0
11/09:00am 2.0 -0.8 -0.4 84 0.9 N 4 4 2 2 - - 0.0
11/08:50am 2.2 -0.1 0.2 87 0.8 E 2 2 1 1 - - 0.0
11/08:40am 0.9 -1.6 -0.7 89 0.6 WNW 2 2 1 1 - - 0.0
11/08:30am 0.3 -2.2 -1.3 89 0.6 ESE 2 2 1 1 - - 0.0
11/08:20am -0.5 -3.1 -1.6 92 0.4 NNE 2 2 1 1 - - 0.0
11/08:10am -1.3 -4.0 -2.4 92 0.3 WNW 2 2 1 1 - - 0.0
11/08:00am -2.3 -5.1 -3.3 93 0.2 SSE 2 4 1 2 - - 0.0
11/07:50am -2.7 -6.3 -3.6 93 0.2 SSE 6 6 3 3 - - 0.0
11/07:40am -2.5 -6.0 -3.2 95 0.1 SSE 6 6 3 3 - - 0.0
11/07:30am -2.5 -6.0 -3.0 96 0.1 S 6 6 3 3 - - 0.0
11/07:20am -3.0 -6.6 -3.4 97 0.0 S 6 6 3 3 - - 0.0
11/07:10am -3.5 -6.7 -3.8 98 -0.1 SSE 4 4 2 2 - - 0.0
11/07:00am -3.3 -6.1 -3.5 99 -0.1 ESE 2 4 1 2 - - 0.0
11/06:50am -3.2 -6.0 -3.4 99 -0.1 NNE 2 2 1 1 - - 0.0
11/06:40am -3.2 -6.0 -3.4 99 -0.1 NW 2 2 1 1 - - 0.0
11/06:30am -3.5 -6.3 -3.7 99 -0.1 N 2 4 1 2 - - 0.0
11/06:20am -3.6 -6.8 -3.9 98 -0.1 NNW 4 4 2 2 - - 0.0
11/06:10am -3.6 -6.5 -3.9 98 -0.1 NNE 2 2 1 1 - - 0.0
11/06:00am -3.9 -6.8 -4.2 98 -0.1 NNW 2 4 1 2 - - 0.0
11/05:50am -3.5 -6.7 -3.7 99 -0.1 W 4 6 2 3 - - 0.0
11/05:40am -3.0 -6.5 -3.2 99 -0.1 S 6 6 3 3 - - 0.0
11/05:30am -2.8 -6.3 -2.9 99 -0.1 S 6 7 3 4 - - 0.0
11/05:20am -2.7 -6.2 -2.8 99 -0.1 SSW 6 6 3 3 - - 0.0
11/05:10am -3.0 -6.2 -3.1 99 -0.1 S 4 6 2 3 - - 0.0
11/05:00am -3.2 -6.4 -3.3 99 -0.1 S 4 4 2 2 - - 0.0
11/04:50am -3.4 -6.2 -3.6 99 -0.1 W 2 2 1 1 - - 0.0
11/04:40am -3.2 -6.0 -3.4 99 -0.1 N 2 4 1 2 - - 0.0
11/04:30am -2.6 -5.3 -2.7 99 -0.1 SW 2 2 1 1 - - 0.0
11/04:20am -2.6 -5.3 -2.7 99 -0.1 NE 2 4 1 2 - - 0.0
11/04:10am -2.6 -5.7 -2.7 99 -0.1 S 4 4 2 2 - - 0.0
11/04:00am -2.7 -5.8 -2.8 99 -0.1 SSE 4 4 2 2 - - 0.0
11/03:50am -2.5 -5.6 -2.6 99 -0.1 SSE 4 4 2 2 - - 0.0
11/03:40am -2.3 -5.4 -2.4 99 -0.1 SSE 4 4 2 2 - - 0.0
11/03:30am -2.3 -5.0 -2.4 99 -0.1 SE 2 4 1 2 - - 0.0
11/03:20am -2.2 -4.9 -2.3 99 -0.1 ESE 2 2 1 1 - - 0.0
11/03:10am -2.5 -5.2 -2.6 99 -0.1 NNW 2 4 1 2 - - 0.0
11/03:00am -2.8 -5.6 -2.9 99 -0.1 NW 2 2 1 1 - - 0.0
11/02:50am -2.8 -5.6 -3.0 99 -0.1 N 2 4 1 2 - - 0.0
11/02:40am -2.1 -4.8 -2.2 99 -0.1 SE 2 2 1 1 - - 0.0
11/02:30am -2.0 -5.0 -2.1 99 -0.1 S 4 6 2 3 - - 0.0
11/02:20am -1.9 -4.6 -2.1 99 0.0 SE 2 6 1 3 - - 0.0
11/02:10am -1.7 -4.3 -1.9 99 0.0 SW 2 2 1 1 - - 0.0
11/02:00am -1.8 -4.4 -2.0 99 0.0 WNW 2 2 1 1 - - 0.0
11/01:50am -2.1 -4.8 -2.3 99 0.0 NNW 2 2 1 1 - - 0.0
11/01:40am -2.1 -4.8 -2.3 99 0.0 NNW 2 4 1 2 - - 0.0
11/01:30am -1.9 -4.6 -2.1 99 0.0 NNE 2 2 1 1 - - 0.0
11/01:20am -1.7 -4.0 -2.0 98 0.0 CALM 0 2 0 1 - - 0.0
11/01:10am -1.4 -4.0 -1.6 99 0.0 ESE 2 2 1 1 - - 0.0
11/01:00am -1.1 -3.6 -1.3 99 0.0 S 2 4 1 2 - - 0.0
11/12:50am -1.1 -4.0 -1.3 99 0.0 S 4 6 2 3 - - 0.0
11/12:40am -1.3 -4.3 -1.5 99 0.0 S 4 4 2 2 - - 0.0
11/12:30am -1.2 -4.5 -1.5 98 0.1 SSE 6 6 3 3 - - 0.0
11/12:20am -1.4 -4.8 -1.8 97 0.1 SE 6 7 3 4 - - 0.0
11/12:10am -1.3 -4.8 -1.7 97 0.1 SE 7 7 4 4 - - 0.0
11/12:00am -1.2 -4.2 -1.7 96 0.1 ESE 4 6 2 3 - - 0.0
 
Date/Time
EST
Temp
°C
App
Temp
°C
Dew
Point
°C
Rel
Hum
%
Delta-T
°C
Wind Press
QNH
hPa
Press
MSL
hPa
Rain since
9am
mm
Dir  Spd
km/h
Gust
km/h
Spd
kts
Gust
kts
10/11:50pm -0.9 -3.5 -1.4 96 0.1 ESE 2 4 1 2 - - 0.0
10/11:40pm -0.8 -3.4 -1.4 96 0.2 N 2 2 1 1 - - 0.0
10/11:30pm -0.7 -3.2 -1.3 96 0.2 NNW 2 4 1 2 - - 0.0
10/11:20pm -0.8 -3.8 -1.5 95 0.2 NW 4 4 2 2 - - 0.0
10/11:10pm -0.7 -4.0 -1.6 94 0.3 NW 6 6 3 3 - - 0.0
10/11:00pm -0.3 -2.8 -1.2 94 0.3 WNW 2 4 1 2 - - 0.0
10/10:50pm -0.3 -3.2 -1.3 93 0.4 SSW 4 6 2 3 - - 0.0
10/10:40pm -0.1 -3.5 -0.9 94 0.3 S 7 7 4 4 - - 0.0
10/10:30pm -0.3 -3.6 -1.1 94 0.3 SSE 6 7 3 4 - - 0.0
10/10:20pm -0.2 -3.7 -1.2 93 0.4 SSE 7 7 4 4 - - 0.0
10/10:10pm 0.3 -3.2 -1.0 91 0.5 SSE 7 7 4 4 - - 0.0
10/10:00pm 0.5 -2.4 -0.8 91 0.5 SSE 4 6 2 3 - - 0.0
10/09:50pm 0.7 -2.2 -0.9 89 0.6 S 4 4 2 2 - - 0.0
10/09:40pm 0.5 -2.7 -0.8 91 0.5 S 6 7 3 4 - - 0.0
10/09:30pm 0.2 -3.2 -0.9 92 0.4 S 7 9 4 5 - - 0.0
10/09:20pm 0.5 -2.4 -1.1 89 0.6 S 4 6 2 3 - - 0.0
10/09:10pm 1.1 -1.7 -0.4 90 0.6 NW 4 6 2 3 - - 0.0
10/09:00pm 1.2 -2.0 -0.4 89 0.6 NW 6 7 3 4 - - 0.0
10/08:50pm 1.3 -1.9 -0.5 88 0.7 WNW 6 7 3 4 - - 0.0
10/08:40pm 1.4 -2.0 -0.6 86 0.8 S 7 7 4 4 - - 0.0
10/08:30pm 1.4 -2.0 -0.5 87 0.7 SSW 7 9 4 5 - - 0.0
10/08:20pm 1.5 -2.3 -0.6 86 0.8 S 9 11 5 6 - - 0.0
10/08:10pm 2.3 -1.5 -0.5 82 1.1 S 9 9 5 5 - - 0.0
10/08:00pm 2.3 -1.1 -0.4 82 1.1 SSW 7 9 4 5 - - 0.0
10/07:50pm 2.4 -1.0 -0.4 82 1.1 S 7 9 4 5 - - 0.0
10/07:40pm 2.7 -0.6 -0.2 81 1.1 S 7 9 4 5 - - 0.0
10/07:30pm 2.7 -0.6 -0.2 81 1.1 S 7 9 4 5 - - 0.0
10/07:20pm 3.2 -0.1 0.0 79 1.3 SSW 7 9 4 5 - - 0.0
10/07:10pm 3.4 0.1 -0.1 78 1.4 S 7 7 4 4 - - 0.0
10/07:00pm 3.6 -0.1 -0.2 76 1.5 S 9 11 5 6 - - 0.0
10/06:50pm 3.8 -0.3 -0.2 75 1.6 S 11 11 6 6 - - 0.0
10/06:40pm 3.6 -0.2 -0.4 75 1.6 S 9 11 5 6 - - 0.0
10/06:30pm 3.3 -0.8 -0.3 77 1.4 S 11 11 6 6 - - 0.0
10/06:20pm 3.2 -0.9 -0.2 78 1.4 S 11 13 6 7 - - 0.0
10/06:10pm 3.4 -1.1 -0.2 77 1.4 S 13 15 7 8 - - 0.0
10/06:00pm 3.7 -1.5 0.0 77 1.5 SSE 17 19 9 10 - - 0.0
10/05:50pm 4.0 -1.6 0.1 76 1.6 SSE 19 20 10 11 - - 0.0
10/05:40pm 4.3 -1.2 0.3 75 1.6 S 19 20 10 11 - - 0.0
10/05:30pm 4.6 -1.5 0.1 72 1.8 S 22 24 12 13 - - 0.0
10/05:20pm 4.9 -0.7 0.1 71 2.0 S 19 24 10 13 - - 0.0
10/05:10pm 5.3 -0.5 0.2 69 2.1 S 20 24 11 13 - - 0.0
10/05:00pm 5.4 -0.1 0.3 69 2.1 S 19 22 10 12 - - 0.0
10/04:50pm 5.8 0.1 0.4 68 2.2 SSE 20 24 11 13 - - 0.0
10/04:40pm 6.6 1.1 0.5 65 2.6 S 19 22 10 12 - - 0.0
10/04:30pm 6.9 1.4 0.5 64 2.7 S 19 22 10 12 - - 0.0
10/04:20pm 7.2 2.0 0.2 61 2.9 S 17 22 9 12 - - 0.0
10/04:10pm 7.3 1.8 0.4 61 2.9 S 19 20 10 11 - - 0.0
10/04:00pm 7.3 1.2 0.5 62 2.9 S 22 24 12 13 - - 0.0
10/03:50pm 7.5 1.0 0.4 61 3.0 S 24 26 13 14 - - 0.0
10/03:40pm 7.7 1.7 1.2 63 2.8 S 22 26 12 14 - - 0.0
10/03:30pm 7.9 2.3 1.0 61 3.0 S 20 24 11 13 - - 0.0
10/03:20pm 7.9 2.5 1.2 62 2.9 S 19 22 10 12 - - 0.0
10/03:10pm 7.8 2.3 0.9 61 3.0 S 19 22 10 12 - - 0.0
10/03:00pm 7.7 2.0 0.7 61 3.0 S 20 22 11 12 - - 0.0
10/02:50pm 7.8 2.4 1.5 64 2.7 S 19 20 10 11 - - 0.0
10/02:40pm 7.8 1.8 1.2 63 2.9 S 22 26 12 14 - - 0.0
10/02:30pm 7.6 0.8 0.8 62 2.9 S 26 28 14 15 - - 0.0
10/02:20pm 7.7 1.2 0.5 60 3.1 S 24 28 13 15 - - 0.0
10/02:10pm 7.4 1.4 1.2 65 2.7 S 22 26 12 14 - - 0.0
10/02:00pm 7.2 0.5 1.4 66 2.5 S 26 30 14 16 - - 0.0
10/01:50pm 7.4 0.6 0.8 63 2.8 S 26 32 14 17 - - 0.0
10/01:40pm 7.2 1.2 1.2 65 2.6 S 22 26 12 14 - - 0.0
10/01:30pm 6.8 -0.4 0.6 64 2.6 S 28 32 15 17 - - 0.0
10/01:20pm 6.6 -0.6 0.7 66 2.5 S 28 35 15 19 - - 0.0
10/01:10pm 7.5 0.5 1.7 66 2.5 S 28 35 15 19 - - 0.0
10/01:00pm 7.4 1.1 1.4 66 2.6 S 24 28 13 15 - - 0.0
10/12:50pm 6.9 -1.0 0.8 65 2.6 S 32 35 17 19 - - 0.0
10/12:40pm 6.4 -0.4 1.1 69 2.3 S 26 30 14 16 - - 0.0
10/12:30pm 6.7 0.0 1.2 68 2.4 S 26 30 14 16 - - 0.0
10/12:20pm 6.3 -0.8 1.5 71 2.1 S 28 33 15 18 - - 0.0
10/12:10pm 6.5 -0.6 1.1 68 2.3 S 28 30 15 16 - - 0.0
10/12:00pm 6.4 -0.7 1.4 70 2.1 S 28 33 15 18 - - 0.0
10/11:50am 6.3 0.0 1.3 70 2.1 SSE 24 32 13 17 - - 0.0
10/11:40am 6.4 -1.6 0.6 66 2.4 SSE 32 37 17 20 - - 0.0
10/11:30am 6.5 -1.8 -0.3 62 2.8 SSE 33 43 18 23 - - 0.0
10/11:20am 6.2 -2.3 0.8 68 2.3 S 35 37 19 20 - - 0.0
10/11:10am 6.2 -2.3 0.6 67 2.3 S 35 39 19 21 - - 0.0
10/11:00am 5.8 -2.4 0.6 69 2.2 S 33 35 18 19 - - 0.0
10/10:50am 5.5 -1.8 0.1 68 2.2 S 28 32 15 17 - - 0.0
10/10:40am 5.2 -2.5 0.0 69 2.1 S 30 37 16 20 - - 0.0
10/10:30am 5.1 -3.1 0.1 70 2.0 S 33 39 18 21 - - 0.0
10/10:20am 5.1 -2.5 0.5 72 1.9 S 30 32 16 17 - - 0.0
10/10:10am 5.1 -2.5 0.5 72 1.9 S 30 37 16 20 - - 0.0
10/10:00am 4.9 -2.7 0.7 74 1.7 S 30 32 16 17 - - 0.0
10/09:50am 4.8 -3.4 0.4 73 1.8 S 33 39 18 21 - - 0.0
10/09:40am 4.6 -3.0 0.3 74 1.8 S 30 35 16 19 - - 0.0
10/09:30am 4.4 -3.8 0.3 75 1.7 SSE 33 41 18 22 - - 0.0
10/09:20am 4.2 -4.4 0.1 75 1.7 SSE 35 43 19 23 - - 0.0
10/09:10am 4.1 -4.1 0.3 76 1.5 S 33 41 18 22 - - 0.0
10/09:00am 4.0 -4.3 0.0 75 1.6 S 33 37 18 20 - - 2.0
10/08:50am 4.1 -4.0 -0.4 72 1.8 S 32 35 17 19 - - 2.0
10/08:40am 3.9 -3.9 -0.6 72 1.8 S 30 33 16 18 - - 2.0
10/08:30am 3.7 -5.0 -0.8 72 1.8 S 35 41 19 22 - - 2.0
10/08:20am 3.6 -5.2 -1.1 71 1.8 S 35 48 19 26 - - 2.0
10/08:10am 3.5 -4.8 -0.5 75 1.6 S 33 37 18 20 - - 2.0
10/08:00am 3.6 -4.4 0.2 78 1.4 S 32 37 17 20 - - 2.0
10/07:50am 3.7 -3.6 0.1 77 1.5 S 28 32 15 17 - - 2.0
10/07:40am 3.7 -4.0 -0.1 76 1.5 S 30 37 16 20 - - 2.0
10/07:30am 3.6 -4.5 -0.5 74 1.6 S 32 35 17 19 - - 2.0
10/07:20am 3.6 -3.7 0.0 77 1.4 S 28 30 15 16 - - 2.0
10/07:10am 3.5 -3.8 0.2 79 1.3 S 28 32 15 17 - - 2.0
10/07:00am 3.6 -3.6 0.4 79 1.3 S 28 32 15 17 - - 2.0
10/06:50am 3.6 -3.6 0.7 81 1.2 S 28 30 15 16 - - 2.0
10/06:40am 3.8 -4.1 0.9 81 1.2 S 32 37 17 20 - - 2.0
10/06:30am 3.9 -2.9 0.9 81 1.2 S 26 33 14 18 - - 2.0
10/06:20am 4.0 -3.2 0.9 80 1.3 S 28 32 15 17 - - 2.0
10/06:10am 4.0 -3.2 0.8 80 1.3 S 28 32 15 17 - - 2.0
10/06:00am 4.0 -3.5 1.0 81 1.2 S 30 32 16 17 - - 2.0
10/05:50am 4.0 -2.8 1.0 81 1.2 S 26 30 14 16 - - 2.0
10/05:40am 3.9 -2.9 1.1 82 1.2 S 26 30 14 16 - - 2.0
10/05:30am 4.1 -3.4 1.2 81 1.2 S 30 35 16 19 - - 2.0
10/05:20am 4.1 -3.0 1.1 81 1.2 S 28 33 15 18 - - 2.0
10/05:10am 4.1 -3.0 1.4 82 1.1 S 28 35 15 19 - - 2.0
10/05:00am 4.0 -2.7 1.4 83 1.1 S 26 30 14 16 - - 2.0
10/04:50am 3.9 -2.4 1.7 85 0.9 S 24 28 13 15 - - 2.0
10/04:40am 3.9 -3.1 1.7 85 0.9 S 28 30 15 16 - - 2.0
10/04:30am 3.9 -3.1 1.8 86 0.9 S 28 33 15 18 - - 2.0
10/04:20am 3.9 -2.7 1.9 87 0.8 S 26 28 14 15 - - 2.0
10/04:10am 3.9 -2.3 2.0 87 0.8 S 24 28 13 15 - - 2.0
10/04:00am 4.0 -2.6 2.0 87 0.8 S 26 32 14 17 - - 2.0
10/03:50am 3.9 -2.7 2.1 88 0.8 S 26 32 14 17 - - 2.0
10/03:40am 3.9 -3.5 2.0 87 0.8 S 30 33 16 18 - - 2.0
10/03:30am 3.8 -3.2 2.1 89 0.7 S 28 32 15 17 - - 1.8
10/03:20am 3.9 -3.5 2.0 87 0.8 S 30 32 16 17 - - 1.8
10/03:10am 3.9 -2.7 1.9 87 0.8 S 26 30 14 16 - - 1.8
10/03:00am 4.1 -3.0 1.6 84 1.1 S 28 33 15 18 - - 1.8
10/02:50am 4.2 -2.5 1.7 84 1.1 S 26 32 14 17 - - 1.8
10/02:40am 4.5 -1.5 1.0 78 1.5 S 22 24 12 13 - - 1.8
10/02:30am 4.8 -2.5 0.2 72 1.9 SSE 28 41 15 22 - - 1.8
10/02:20am 4.8 -3.2 0.3 72 1.8 SSE 32 37 17 20 - - 1.8
10/02:10am 4.8 -2.8 0.6 74 1.7 SSE 30 39 16 21 - - 1.8
10/02:00am 4.8 -3.3 0.7 75 1.7 SSE 33 39 18 21 - - 1.8
10/01:50am 4.8 -3.3 1.2 77 1.5 SSE 33 37 18 20 - - 1.8
10/01:40am 5.0 -2.8 1.4 77 1.5 SSE 32 41 17 22 - - 1.8
10/01:30am 4.9 -3.9 1.3 77 1.5 SSE 37 44 20 24 - - 1.8
10/01:20am 4.9 -2.5 1.6 79 1.4 SSE 30 41 16 22 - - 1.8
10/01:10am 5.0 -3.0 1.8 80 1.4 SSE 33 44 18 24 - - 1.8
10/01:00am 4.7 -3.7 1.5 80 1.4 SSE 35 43 19 23 - - 1.8
10/12:50am 4.3 -4.4 2.2 86 0.9 SSE 37 44 20 24 - - 1.8
10/12:40am 4.5 -4.1 2.6 87 0.8 SSE 37 41 20 22 - - 1.6
10/12:30am 4.6 -4.1 2.3 85 1.0 SSE 37 43 20 23 - - 1.6
10/12:20am 4.7 -4.4 2.1 83 1.1 SSE 39 46 21 25 - - 1.6
10/12:10am 4.8 -5.0 2.3 84 1.1 SSE 43 50 23 27 - - 1.6
10/12:00am 4.9 -5.1 2.3 83 1.1 SSE 44 50 24 27 - - 1.6
 
Date/Time
EST
Temp
°C
App
Temp
°C
Dew
Point
°C
Rel
Hum
%
Delta-T
°C
Wind Press
QNH
hPa
Press
MSL
hPa
Rain since
9am
mm
Dir  Spd
km/h
Gust
km/h
Spd
kts
Gust
kts
09/11:50pm 5.0 -4.0 2.2 82 1.2 SSE 39 46 21 25 - - 1.6
09/11:40pm 4.9 -5.1 2.3 83 1.1 SSE 44 50 24 27 - - 1.6
09/11:30pm 4.9 -5.4 2.5 84 1.0 SSE 46 56 25 30 - - 1.6
09/11:20pm 4.9 -4.5 2.4 84 1.1 SSE 41 46 22 25 - - 1.6
09/11:10pm 5.3 -4.1 2.2 80 1.3 SE 41 48 22 26 - - 1.6
09/11:00pm 5.3 -4.2 1.6 77 1.6 SE 41 50 22 27 - - 1.6
09/10:50pm 5.0 -4.9 1.6 79 1.4 SE 43 56 23 30 - - 1.6
09/10:40pm 5.0 -5.8 2.0 81 1.3 SE 48 67 26 36 - - 1.6
09/10:30pm 5.3 -6.3 1.9 79 1.5 SE 52 63 28 34 - - 1.6
09/10:20pm 5.2 -6.4 1.4 76 1.6 SE 52 65 28 35 - - 1.6
09/10:10pm 5.2 -3.5 2.0 80 1.4 SE 37 44 20 24 - - 1.6
09/10:00pm 5.3 -4.6 1.9 79 1.5 SE 43 54 23 29 - - 1.6
09/09:50pm 5.3 -5.1 1.9 79 1.5 SSE 46 52 25 28 - - 1.6
09/09:40pm 5.3 -4.6 1.8 78 1.5 SSE 43 46 23 25 - - 1.6
09/09:30pm 5.3 -4.8 1.5 76 1.6 SSE 44 54 24 29 - - 1.6
09/09:20pm 5.3 -5.1 2.2 80 1.3 SSE 46 61 25 33 - - 1.6
09/09:10pm 5.3 -6.6 2.0 79 1.4 SSE 54 61 29 33 - - 1.6
09/09:00pm 5.3 -5.9 2.0 79 1.4 SSE 50 56 27 30 - - 1.6
09/08:50pm 5.2 -5.2 1.8 79 1.5 SSE 46 57 25 31 - - 1.6
09/08:40pm 4.9 -4.2 1.6 79 1.4 SSE 39 48 21 26 - - 1.6
09/08:30pm 4.9 -4.7 1.4 78 1.5 SSE 41 46 22 25 - - 1.6
09/08:20pm 4.8 -4.4 1.4 78 1.4 S 39 44 21 24 - - 1.6
09/08:10pm 4.9 -5.2 1.4 78 1.5 SSE 44 54 24 29 - - 1.6
09/08:00pm 5.1 -5.0 1.4 77 1.6 SSE 44 48 24 26 - - 1.6

Other formats

Comma delimited format used in spreadsheet applications
http://www.bom.gov.au/fwo/IDN60801/IDN60801.99765.axf

JavaScript Object Notation format (JSON) in row-major order
http://www.bom.gov.au/fwo/IDN60801/IDN60801.99765.json

Data quality

Most of these data are generated automatically and are frequently updated. Quality checks on data are not normally performed. It is possible for incorrect values to appear. Refer to information at About Latest Weather Observations and please check the disclaimer before using these data.